sensor_id;sensor_type;location;lat;lon;timestamp;temperature;humidity
25718;DHT22;13574;52.040;5.692;2022-11-02T00:03:44;16.40;99.90
25718;DHT22;13574;52.040;5.692;2022-11-02T00:06:09;16.40;99.90
25718;DHT22;13574;52.040;5.692;2022-11-02T00:08:35;16.30;99.90
25718;DHT22;13574;52.040;5.692;2022-11-02T00:11:00;16.10;99.90
25718;DHT22;13574;52.040;5.692;2022-11-02T00:13:26;16.20;99.90
25718;DHT22;13574;52.040;5.692;2022-11-02T00:15:52;16.20;99.90
25718;DHT22;13574;52.040;5.692;2022-11-02T00:18:17;16.10;99.90
25718;DHT22;13574;52.040;5.692;2022-11-02T00:20:43;16.20;99.90
25718;DHT22;13574;52.040;5.692;2022-11-02T00:23:09;16.20;99.90
25718;DHT22;13574;52.040;5.692;2022-11-02T00:25:47;16.30;99.90
25718;DHT22;13574;52.040;5.692;2022-11-02T00:28:14;16.30;99.90
25718;DHT22;13574;52.040;5.692;2022-11-02T00:30:40;16.20;99.90
25718;DHT22;13574;52.040;5.692;2022-11-02T00:33:06;16.20;99.90
25718;DHT22;13574;52.040;5.692;2022-11-02T00:35:33;16.30;99.90
25718;DHT22;13574;52.040;5.692;2022-11-02T00:37:59;16.30;99.90
25718;DHT22;13574;52.040;5.692;2022-11-02T00:40:24;16.40;99.90
25718;DHT22;13574;52.040;5.692;2022-11-02T00:42:50;16.30;99.90
25718;DHT22;13574;52.040;5.692;2022-11-02T00:45:16;16.40;99.90
25718;DHT22;13574;52.040;5.692;2022-11-02T00:47:41;16.50;99.90
25718;DHT22;13574;52.040;5.692;2022-11-02T00:50:07;16.40;99.90
25718;DHT22;13574;52.040;5.692;2022-11-02T00:52:33;16.60;99.90
25718;DHT22;13574;52.040;5.692;2022-11-02T00:54:59;16.60;99.90
25718;DHT22;13574;52.040;5.692;2022-11-02T00:57:24;16.50;99.90
25718;DHT22;13574;52.040;5.692;2022-11-02T00:59:50;16.60;99.90
25718;DHT22;13574;52.040;5.692;2022-11-02T01:02:16;16.40;99.90
25718;DHT22;13574;52.040;5.692;2022-11-02T01:04:41;16.50;99.90
25718;DHT22;13574;52.040;5.692;2022-11-02T01:07:07;16.50;99.90
25718;DHT22;13574;52.040;5.692;2022-11-02T01:09:33;16.80;99.90
25718;DHT22;13574;52.040;5.692;2022-11-02T01:11:59;17.00;99.90
25718;DHT22;13574;52.040;5.692;2022-11-02T01:14:25;17.00;99.90
25718;DHT22;13574;52.040;5.692;2022-11-02T01:16:51;17.00;99.90
25718;DHT22;13574;52.040;5.692;2022-11-02T01:19:17;16.80;99.90
25718;DHT22;13574;52.040;5.692;2022-11-02T01:21:42;16.80;99.90
25718;DHT22;13574;52.040;5.692;2022-11-02T01:24:08;16.70;99.90
25718;DHT22;13574;52.040;5.692;2022-11-02T01:26:33;16.80;99.90
25718;DHT22;13574;52.040;5.692;2022-11-02T01:28:59;16.80;99.90
25718;DHT22;13574;52.040;5.692;2022-11-02T01:31:25;16.80;99.90
25718;DHT22;13574;52.040;5.692;2022-11-02T01:33:50;16.70;99.90
25718;DHT22;13574;52.040;5.692;2022-11-02T01:36:17;16.20;99.90
25718;DHT22;13574;52.040;5.692;2022-11-02T01:38:47;16.10;99.90
25718;DHT22;13574;52.040;5.692;2022-11-02T01:41:14;16.00;99.90
25718;DHT22;13574;52.040;5.692;2022-11-02T01:43:44;16.20;99.90
25718;DHT22;13574;52.040;5.692;2022-11-02T01:51:09;16.20;99.90
25718;DHT22;13574;52.040;5.692;2022-11-02T01:53:38;15.90;99.90
25718;DHT22;13574;52.040;5.692;2022-11-02T01:56:06;15.60;99.90
25718;DHT22;13574;52.040;5.692;2022-11-02T01:58:32;15.60;99.90
25718;DHT22;13574;52.040;5.692;2022-11-02T02:00:59;15.60;99.90
25718;DHT22;13574;52.040;5.692;2022-11-02T02:03:25;15.60;99.90
25718;DHT22;13574;52.040;5.692;2022-11-02T02:05:58;15.50;99.90
25718;DHT22;13574;52.040;5.692;2022-11-02T02:08:26;15.30;99.90
25718;DHT22;13574;52.040;5.692;2022-11-02T02:10:55;15.00;99.90
25718;DHT22;13574;52.040;5.692;2022-11-02T02:13:21;14.90;99.90
25718;DHT22;13574;52.040;5.692;2022-11-02T02:16:01;14.80;99.90
25718;DHT22;13574;52.040;5.692;2022-11-02T02:21:11;14.60;99.90
25718;DHT22;13574;52.040;5.692;2022-11-02T02:29:10;15.00;99.90
25718;DHT22;13574;52.040;5.692;2022-11-02T02:31:53;15.00;99.90
25718;DHT22;13574;52.040;5.692;2022-11-02T02:34:28;15.00;99.90
25718;DHT22;13574;52.040;5.692;2022-11-02T02:48:35;15.10;99.90
25718;DHT22;13574;52.040;5.692;2022-11-02T02:50:50;15.10;99.90
25718;DHT22;13574;52.040;5.692;2022-11-02T02:53:33;15.10;99.90
25718;DHT22;13574;52.040;5.692;2022-11-02T02:56:02;15.10;99.90
25718;DHT22;13574;52.040;5.692;2022-11-02T02:58:40;15.10;99.90
25718;DHT22;13574;52.040;5.692;2022-11-02T03:01:11;15.10;99.90
25718;DHT22;13574;52.040;5.692;2022-11-02T03:03:40;15.10;99.90
25718;DHT22;13574;52.040;5.692;2022-11-02T03:06:30;15.10;99.90
25718;DHT22;13574;52.040;5.692;2022-11-02T03:17:27;14.80;99.90
25718;DHT22;13574;52.040;5.692;2022-11-02T03:20:25;14.50;99.90
25718;DHT22;13574;52.040;5.692;2022-11-02T03:23:14;14.50;99.90
25718;DHT22;13574;52.040;5.692;2022-11-02T03:25:47;14.60;99.90
25718;DHT22;13574;52.040;5.692;2022-11-02T03:30:53;15.00;99.90
25718;DHT22;13574;52.040;5.692;2022-11-02T03:33:27;15.00;99.90
25718;DHT22;13574;52.040;5.692;2022-11-02T03:36:07;14.80;99.90
25718;DHT22;13574;52.040;5.692;2022-11-02T03:38:48;14.70;99.90
25718;DHT22;13574;52.040;5.692;2022-11-02T03:41:18;14.60;99.90
25718;DHT22;13574;52.040;5.692;2022-11-02T03:43:46;14.70;99.90
25718;DHT22;13574;52.040;5.692;2022-11-02T03:46:14;14.60;99.90
25718;DHT22;13574;52.040;5.692;2022-11-02T03:48:47;14.90;99.90
25718;DHT22;13574;52.040;5.692;2022-11-02T03:51:16;15.10;99.90
25718;DHT22;13574;52.040;5.692;2022-11-02T03:56:36;15.00;99.90
25718;DHT22;13574;52.040;5.692;2022-11-02T03:59:02;14.80;99.90
25718;DHT22;13574;52.040;5.692;2022-11-02T04:01:28;15.00;99.90
25718;DHT22;13574;52.040;5.692;2022-11-02T04:03:55;14.90;99.90
25718;DHT22;13574;52.040;5.692;2022-11-02T04:06:21;14.90;99.90
25718;DHT22;13574;52.040;5.692;2022-11-02T04:08:48;14.80;99.90
25718;DHT22;13574;52.040;5.692;2022-11-02T04:11:15;14.90;99.90
25718;DHT22;13574;52.040;5.692;2022-11-02T04:13:59;15.00;99.90
25718;DHT22;13574;52.040;5.692;2022-11-02T04:16:43;15.10;99.90
25718;DHT22;13574;52.040;5.692;2022-11-02T04:19:09;14.90;99.90
25718;DHT22;13574;52.040;5.692;2022-11-02T04:21:55;14.80;99.90
25718;DHT22;13574;52.040;5.692;2022-11-02T04:24:40;14.80;99.90
25718;DHT22;13574;52.040;5.692;2022-11-02T04:27:24;15.00;99.90
25718;DHT22;13574;52.040;5.692;2022-11-02T04:29:50;14.90;99.90
25718;DHT22;13574;52.040;5.692;2022-11-02T04:32:16;14.90;99.90
25718;DHT22;13574;52.040;5.692;2022-11-02T04:35:01;14.90;99.90
25718;DHT22;13574;52.040;5.692;2022-11-02T04:37:26;15.20;99.90
25718;DHT22;13574;52.040;5.692;2022-11-02T04:40:11;15.20;99.90
25718;DHT22;13574;52.040;5.692;2022-11-02T04:42:36;15.20;99.90
25718;DHT22;13574;52.040;5.692;2022-11-02T04:45:02;15.30;99.90
25718;DHT22;13574;52.040;5.692;2022-11-02T04:47:28;15.40;99.90
25718;DHT22;13574;52.040;5.692;2022-11-02T04:49:53;15.40;99.90
25718;DHT22;13574;52.040;5.692;2022-11-02T04:52:19;15.50;99.90
25718;DHT22;13574;52.040;5.692;2022-11-02T04:54:45;15.70;99.90
25718;DHT22;13574;52.040;5.692;2022-11-02T04:57:10;15.90;99.90
25718;DHT22;13574;52.040;5.692;2022-11-02T04:59:36;15.80;99.90
25718;DHT22;13574;52.040;5.692;2022-11-02T05:02:01;15.60;99.90
25718;DHT22;13574;52.040;5.692;2022-11-02T05:04:27;15.70;99.90
25718;DHT22;13574;52.040;5.692;2022-11-02T05:06:52;15.80;99.90
25718;DHT22;13574;52.040;5.692;2022-11-02T05:09:18;16.10;99.90
25718;DHT22;13574;52.040;5.692;2022-11-02T05:11:44;16.20;99.90
25718;DHT22;13574;52.040;5.692;2022-11-02T05:14:09;15.70;99.90
25718;DHT22;13574;52.040;5.692;2022-11-02T05:16:35;15.70;99.90
25718;DHT22;13574;52.040;5.692;2022-11-02T05:19:00;15.80;99.90
25718;DHT22;13574;52.040;5.692;2022-11-02T05:21:26;15.70;99.90
25718;DHT22;13574;52.040;5.692;2022-11-02T05:23:52;15.70;99.90
25718;DHT22;13574;52.040;5.692;2022-11-02T05:26:20;15.40;99.90
25718;DHT22;13574;52.040;5.692;2022-11-02T05:28:46;15.50;99.90
25718;DHT22;13574;52.040;5.692;2022-11-02T05:31:11;15.60;99.90
25718;DHT22;13574;52.040;5.692;2022-11-02T05:33:37;15.70;99.90
25718;DHT22;13574;52.040;5.692;2022-11-02T05:36:03;15.70;99.90
25718;DHT22;13574;52.040;5.692;2022-11-02T05:38:29;16.00;99.90
25718;DHT22;13574;52.040;5.692;2022-11-02T05:40:56;16.00;99.90
25718;DHT22;13574;52.040;5.692;2022-11-02T05:43:23;16.20;99.90
25718;DHT22;13574;52.040;5.692;2022-11-02T05:45:57;16.30;99.90
25718;DHT22;13574;52.040;5.692;2022-11-02T05:48:24;16.30;99.90
25718;DHT22;13574;52.040;5.692;2022-11-02T05:51:00;16.40;99.90
25718;DHT22;13574;52.040;5.692;2022-11-02T05:53:27;16.30;99.90
25718;DHT22;13574;52.040;5.692;2022-11-02T05:56:00;16.20;99.90
25718;DHT22;13574;52.040;5.692;2022-11-02T05:58:26;15.80;99.90
25718;DHT22;13574;52.040;5.692;2022-11-02T06:00:53;15.80;99.90
25718;DHT22;13574;52.040;5.692;2022-11-02T06:03:19;16.00;99.90
25718;DHT22;13574;52.040;5.692;2022-11-02T06:05:45;16.20;99.90
25718;DHT22;13574;52.040;5.692;2022-11-02T06:08:10;16.20;99.90
25718;DHT22;13574;52.040;5.692;2022-11-02T06:10:36;16.10;99.90
25718;DHT22;13574;52.040;5.692;2022-11-02T06:13:02;16.20;99.90
25718;DHT22;13574;52.040;5.692;2022-11-02T06:15:29;15.90;99.90
25718;DHT22;13574;52.040;5.692;2022-11-02T06:17:56;15.90;99.90
25718;DHT22;13574;52.040;5.692;2022-11-02T06:20:22;15.90;99.90
25718;DHT22;13574;52.040;5.692;2022-11-02T06:22:48;16.00;99.90
25718;DHT22;13574;52.040;5.692;2022-11-02T06:25:14;16.20;99.90
25718;DHT22;13574;52.040;5.692;2022-11-02T06:27:40;16.00;99.90
25718;DHT22;13574;52.040;5.692;2022-11-02T06:30:07;16.00;99.90
25718;DHT22;13574;52.040;5.692;2022-11-02T06:32:33;16.10;99.90
25718;DHT22;13574;52.040;5.692;2022-11-02T06:35:01;16.00;99.90
25718;DHT22;13574;52.040;5.692;2022-11-02T06:37:32;15.90;99.90
25718;DHT22;13574;52.040;5.692;2022-11-02T06:39:58;16.00;99.90
25718;DHT22;13574;52.040;5.692;2022-11-02T06:42:23;16.00;99.90
25718;DHT22;13574;52.040;5.692;2022-11-02T06:47:17;16.10;99.90
25718;DHT22;13574;52.040;5.692;2022-11-02T06:52:12;16.00;99.90
25718;DHT22;13574;52.040;5.692;2022-11-02T06:54:38;16.20;99.90
25718;DHT22;13574;52.040;5.692;2022-11-02T06:57:03;15.90;99.90
25718;DHT22;13574;52.040;5.692;2022-11-02T06:59:31;16.10;99.90
25718;DHT22;13574;52.040;5.692;2022-11-02T07:01:57;16.00;99.90
25718;DHT22;13574;52.040;5.692;2022-11-02T07:04:25;16.10;99.90
25718;DHT22;13574;52.040;5.692;2022-11-02T07:06:51;16.20;99.90
25718;DHT22;13574;52.040;5.692;2022-11-02T07:09:16;16.30;99.90
25718;DHT22;13574;52.040;5.692;2022-11-02T07:11:42;16.20;99.90
25718;DHT22;13574;52.040;5.692;2022-11-02T07:14:07;16.30;99.90
25718;DHT22;13574;52.040;5.692;2022-11-02T07:16:33;16.40;99.90
25718;DHT22;13574;52.040;5.692;2022-11-02T07:18:59;16.30;99.90
25718;DHT22;13574;52.040;5.692;2022-11-02T07:21:24;16.50;99.90
25718;DHT22;13574;52.040;5.692;2022-11-02T07:23:50;16.50;99.90
25718;DHT22;13574;52.040;5.692;2022-11-02T07:26:15;16.50;99.90
25718;DHT22;13574;52.040;5.692;2022-11-02T07:28:41;16.50;99.90
25718;DHT22;13574;52.040;5.692;2022-11-02T07:31:07;16.50;99.90
25718;DHT22;13574;52.040;5.692;2022-11-02T07:33:32;16.60;99.90
25718;DHT22;13574;52.040;5.692;2022-11-02T07:35:58;16.50;99.90
25718;DHT22;13574;52.040;5.692;2022-11-02T07:38:26;16.50;99.90
25718;DHT22;13574;52.040;5.692;2022-11-02T07:40:52;16.50;99.90
25718;DHT22;13574;52.040;5.692;2022-11-02T07:43:17;16.30;99.90
25718;DHT22;13574;52.040;5.692;2022-11-02T07:45:43;16.30;99.90
25718;DHT22;13574;52.040;5.692;2022-11-02T07:48:09;16.30;99.90
25718;DHT22;13574;52.040;5.692;2022-11-02T07:50:34;16.50;99.90
25718;DHT22;13574;52.040;5.692;2022-11-02T07:53:00;16.40;99.90
25718;DHT22;13574;52.040;5.692;2022-11-02T07:55:27;16.30;99.90
25718;DHT22;13574;52.040;5.692;2022-11-02T07:57:55;16.20;99.90
25718;DHT22;13574;52.040;5.692;2022-11-02T08:00:21;16.30;99.90
25718;DHT22;13574;52.040;5.692;2022-11-02T08:02:47;16.50;99.90
25718;DHT22;13574;52.040;5.692;2022-11-02T08:05:13;16.50;99.90
25718;DHT22;13574;52.040;5.692;2022-11-02T08:07:39;16.50;99.90
25718;DHT22;13574;52.040;5.692;2022-11-02T08:10:05;16.60;99.90
25718;DHT22;13574;52.040;5.692;2022-11-02T08:12:30;16.40;99.90
25718;DHT22;13574;52.040;5.692;2022-11-02T08:14:56;16.60;99.90
25718;DHT22;13574;52.040;5.692;2022-11-02T08:17:22;16.30;99.90
25718;DHT22;13574;52.040;5.692;2022-11-02T08:19:48;16.20;99.90
25718;DHT22;13574;52.040;5.692;2022-11-02T08:22:14;16.20;99.90
25718;DHT22;13574;52.040;5.692;2022-11-02T08:24:40;16.10;99.90
25718;DHT22;13574;52.040;5.692;2022-11-02T08:27:05;16.20;99.90
25718;DHT22;13574;52.040;5.692;2022-11-02T08:29:31;16.10;99.90
25718;DHT22;13574;52.040;5.692;2022-11-02T08:31:56;16.30;99.90
25718;DHT22;13574;52.040;5.692;2022-11-02T08:34:22;16.40;99.90
25718;DHT22;13574;52.040;5.692;2022-11-02T08:36:48;16.40;99.90
25718;DHT22;13574;52.040;5.692;2022-11-02T08:39:13;16.50;99.90
25718;DHT22;13574;52.040;5.692;2022-11-02T08:41:39;16.60;99.90
25718;DHT22;13574;52.040;5.692;2022-11-02T08:44:04;16.70;99.90
25718;DHT22;13574;52.040;5.692;2022-11-02T08:46:30;16.90;99.90
25718;DHT22;13574;52.040;5.692;2022-11-02T08:48:55;16.90;99.90
25718;DHT22;13574;52.040;5.692;2022-11-02T08:51:21;17.00;99.90
25718;DHT22;13574;52.040;5.692;2022-11-02T08:53:47;17.20;99.90
25718;DHT22;13574;52.040;5.692;2022-11-02T08:56:12;17.00;99.90
25718;DHT22;13574;52.040;5.692;2022-11-02T08:58:38;16.90;99.90
25718;DHT22;13574;52.040;5.692;2022-11-02T09:01:04;16.80;99.90
25718;DHT22;13574;52.040;5.692;2022-11-02T09:03:29;16.70;99.90
25718;DHT22;13574;52.040;5.692;2022-11-02T09:05:57;16.80;99.90
25718;DHT22;13574;52.040;5.692;2022-11-02T09:08:23;16.80;99.90
25718;DHT22;13574;52.040;5.692;2022-11-02T09:10:50;17.00;99.90
25718;DHT22;13574;52.040;5.692;2022-11-02T09:13:17;17.10;99.90
25718;DHT22;13574;52.040;5.692;2022-11-02T09:15:52;17.10;99.90
25718;DHT22;13574;52.040;5.692;2022-11-02T09:18:18;17.30;99.90
25718;DHT22;13574;52.040;5.692;2022-11-02T09:20:44;17.40;99.90
25718;DHT22;13574;52.040;5.692;2022-11-02T09:23:11;17.20;99.90
25718;DHT22;13574;52.040;5.692;2022-11-02T09:25:36;17.20;99.90
25718;DHT22;13574;52.040;5.692;2022-11-02T09:28:02;17.10;99.90
25718;DHT22;13574;52.040;5.692;2022-11-02T09:30:28;17.20;99.90
25718;DHT22;13574;52.040;5.692;2022-11-02T09:32:58;17.00;99.90
25718;DHT22;13574;52.040;5.692;2022-11-02T09:35:25;16.80;99.90
25718;DHT22;13574;52.040;5.692;2022-11-02T09:37:51;16.80;99.90
25718;DHT22;13574;52.040;5.692;2022-11-02T09:40:30;17.00;99.90
25718;DHT22;13574;52.040;5.692;2022-11-02T09:46:08;16.90;99.90
25718;DHT22;13574;52.040;5.692;2022-11-02T09:48:40;17.00;99.90
25718;DHT22;13574;52.040;5.692;2022-11-02T09:51:24;17.20;99.90
25718;DHT22;13574;52.040;5.692;2022-11-02T09:56:30;17.10;99.90
25718;DHT22;13574;52.040;5.692;2022-11-02T09:58:59;17.00;99.90
25718;DHT22;13574;52.040;5.692;2022-11-02T10:01:43;17.00;99.90
25718;DHT22;13574;52.040;5.692;2022-11-02T10:04:25;17.20;99.90
25718;DHT22;13574;52.040;5.692;2022-11-02T10:09:53;17.60;99.90
25718;DHT22;13574;52.040;5.692;2022-11-02T10:15:34;17.50;99.90
25718;DHT22;13574;52.040;5.692;2022-11-02T10:18:02;17.50;99.90
25718;DHT22;13574;52.040;5.692;2022-11-02T10:22:59;17.70;99.90
25718;DHT22;13574;52.040;5.692;2022-11-02T10:25:27;17.60;99.90
25718;DHT22;13574;52.040;5.692;2022-11-02T10:28:00;17.70;99.90
25718;DHT22;13574;52.040;5.692;2022-11-02T10:30:29;17.70;99.90
25718;DHT22;13574;52.040;5.692;2022-11-02T10:32:55;17.90;99.90
25718;DHT22;13574;52.040;5.692;2022-11-02T10:35:33;18.00;99.90
25718;DHT22;13574;52.040;5.692;2022-11-02T10:41:03;18.20;99.90
25718;DHT22;13574;52.040;5.692;2022-11-02T10:43:46;18.10;99.90
25718;DHT22;13574;52.040;5.692;2022-11-02T10:52:04;18.40;99.90
25718;DHT22;13574;52.040;5.692;2022-11-02T10:54:30;18.30;99.90
25718;DHT22;13574;52.040;5.692;2022-11-02T10:56:57;18.30;99.90
25718;DHT22;13574;52.040;5.692;2022-11-02T10:59:23;18.30;99.90
25718;DHT22;13574;52.040;5.692;2022-11-02T11:04:24;18.20;99.90
25718;DHT22;13574;52.040;5.692;2022-11-02T11:06:50;18.40;99.90
25718;DHT22;13574;52.040;5.692;2022-11-02T11:09:19;18.50;99.90
25718;DHT22;13574;52.040;5.692;2022-11-02T11:11:59;18.40;99.90
25718;DHT22;13574;52.040;5.692;2022-11-02T11:14:27;18.20;99.90
25718;DHT22;13574;52.040;5.692;2022-11-02T11:16:56;18.40;99.90
25718;DHT22;13574;52.040;5.692;2022-11-02T11:19:28;18.40;99.90
25718;DHT22;13574;52.040;5.692;2022-11-02T11:21:56;18.40;99.90
25718;DHT22;13574;52.040;5.692;2022-11-02T11:24:33;18.50;99.90
25718;DHT22;13574;52.040;5.692;2022-11-02T11:29:31;18.30;99.90
25718;DHT22;13574;52.040;5.692;2022-11-02T11:31:58;18.20;99.90
25718;DHT22;13574;52.040;5.692;2022-11-02T11:34:27;18.40;99.90
25718;DHT22;13574;52.040;5.692;2022-11-02T11:37:03;18.40;99.90
25718;DHT22;13574;52.040;5.692;2022-11-02T11:39:30;18.40;99.90
25718;DHT22;13574;52.040;5.692;2022-11-02T11:41:57;18.50;99.90
25718;DHT22;13574;52.040;5.692;2022-11-02T11:44:24;18.70;99.90
25718;DHT22;13574;52.040;5.692;2022-11-02T11:46:53;18.90;99.90
25718;DHT22;13574;52.040;5.692;2022-11-02T11:49:28;18.80;99.90
25718;DHT22;13574;52.040;5.692;2022-11-02T11:51:55;19.00;99.90
25718;DHT22;13574;52.040;5.692;2022-11-02T11:54:29;18.80;99.90
25718;DHT22;13574;52.040;5.692;2022-11-02T11:56:57;18.80;99.90
25718;DHT22;13574;52.040;5.692;2022-11-02T12:01:55;18.80;99.90
25718;DHT22;13574;52.040;5.692;2022-11-02T12:04:27;18.60;99.90
25718;DHT22;13574;52.040;5.692;2022-11-02T12:12:45;18.70;99.90
25718;DHT22;13574;52.040;5.692;2022-11-02T12:21:19;18.50;99.90
25718;DHT22;13574;52.040;5.692;2022-11-02T12:29:24;18.60;99.90
25718;DHT22;13574;52.040;5.692;2022-11-02T12:35:07;18.20;99.90
25718;DHT22;13574;52.040;5.692;2022-11-02T12:41:03;18.30;99.90
25718;DHT22;13574;52.040;5.692;2022-11-02T12:43:48;18.20;99.90
25718;DHT22;13574;52.040;5.692;2022-11-02T12:46:18;18.40;99.90
25718;DHT22;13574;52.040;5.692;2022-11-02T12:54:48;18.50;99.90
25718;DHT22;13574;52.040;5.692;2022-11-02T12:57:26;18.40;99.70
25718;DHT22;13574;52.040;5.692;2022-11-02T13:00:21;18.30;99.80
25718;DHT22;13574;52.040;5.692;2022-11-02T13:03:12;18.60;99.90
25718;DHT22;13574;52.040;5.692;2022-11-02T13:05:48;18.70;99.60
25718;DHT22;13574;52.040;5.692;2022-11-02T13:08:26;18.50;99.60
25718;DHT22;13574;52.040;5.692;2022-11-02T13:10:57;18.30;99.90
25718;DHT22;13574;52.040;5.692;2022-11-02T13:13:32;18.40;99.70
25718;DHT22;13574;52.040;5.692;2022-11-02T13:16:01;18.50;99.70
25718;DHT22;13574;52.040;5.692;2022-11-02T13:18:29;18.70;99.40
25718;DHT22;13574;52.040;5.692;2022-11-02T13:21:00;18.40;98.70
25718;DHT22;13574;52.040;5.692;2022-11-02T13:26:02;18.20;98.20
25718;DHT22;13574;52.040;5.692;2022-11-02T13:28:47;18.20;98.40
25718;DHT22;13574;52.040;5.692;2022-11-02T13:31:19;18.20;98.60
25718;DHT22;13574;52.040;5.692;2022-11-02T13:33:48;18.10;98.30
25718;DHT22;13574;52.040;5.692;2022-11-02T13:36:14;17.90;98.50
25718;DHT22;13574;52.040;5.692;2022-11-02T13:38:49;18.20;98.40
25718;DHT22;13574;52.040;5.692;2022-11-02T13:49:17;18.20;98.50
25718;DHT22;13574;52.040;5.692;2022-11-02T13:52:04;18.20;99.00
25718;DHT22;13574;52.040;5.692;2022-11-02T13:54:47;18.10;98.80
25718;DHT22;13574;52.040;5.692;2022-11-02T14:00:03;17.90;99.60
25718;DHT22;13574;52.040;5.692;2022-11-02T14:02:34;18.00;99.70
25718;DHT22;13574;52.040;5.692;2022-11-02T14:05:03;17.90;99.70
25718;DHT22;13574;52.040;5.692;2022-11-02T14:07:34;18.00;99.90
25718;DHT22;13574;52.040;5.692;2022-11-02T14:10:16;18.20;99.80
25718;DHT22;13574;52.040;5.692;2022-11-02T14:12:47;18.20;99.90
25718;DHT22;13574;52.040;5.692;2022-11-02T14:29:02;17.80;99.90
25718;DHT22;13574;52.040;5.692;2022-11-02T14:31:34;17.70;99.90
25718;DHT22;13574;52.040;5.692;2022-11-02T14:34:18;17.90;99.90
25718;DHT22;13574;52.040;5.692;2022-11-02T14:39:30;17.90;99.90
25718;DHT22;13574;52.040;5.692;2022-11-02T14:42:48;18.00;99.90
25718;DHT22;13574;52.040;5.692;2022-11-02T14:48:14;18.00;99.90
25718;DHT22;13574;52.040;5.692;2022-11-02T14:50:42;18.20;99.90
25718;DHT22;13574;52.040;5.692;2022-11-02T14:53:23;18.10;99.90
25718;DHT22;13574;52.040;5.692;2022-11-02T14:55:53;18.00;99.90
25718;DHT22;13574;52.040;5.692;2022-11-02T14:58:26;17.90;99.90
25718;DHT22;13574;52.040;5.692;2022-11-02T15:00:57;18.20;99.90
25718;DHT22;13574;52.040;5.692;2022-11-02T15:08:58;18.10;99.90
25718;DHT22;13574;52.040;5.692;2022-11-02T15:11:48;17.80;99.90
25718;DHT22;13574;52.040;5.692;2022-11-02T15:19:42;17.50;99.90
25718;DHT22;13574;52.040;5.692;2022-11-02T15:25:34;17.70;99.90
25718;DHT22;13574;52.040;5.692;2022-11-02T15:28:11;17.80;99.90
25718;DHT22;13574;52.040;5.692;2022-11-02T15:30:43;17.70;99.90
25718;DHT22;13574;52.040;5.692;2022-11-02T15:33:21;17.50;99.90
25718;DHT22;13574;52.040;5.692;2022-11-02T15:35:52;17.50;99.90
25718;DHT22;13574;52.040;5.692;2022-11-02T15:38:28;17.70;99.90
25718;DHT22;13574;52.040;5.692;2022-11-02T15:46:39;17.50;99.90
25718;DHT22;13574;52.040;5.692;2022-11-02T15:57:06;17.70;99.90
25718;DHT22;13574;52.040;5.692;2022-11-02T15:59:58;17.80;99.90
25718;DHT22;13574;52.040;5.692;2022-11-02T16:02:37;17.70;99.90
25718;DHT22;13574;52.040;5.692;2022-11-02T16:05:04;17.60;99.90
25718;DHT22;13574;52.040;5.692;2022-11-02T16:07:34;17.70;99.90
25718;DHT22;13574;52.040;5.692;2022-11-02T16:12:46;17.70;99.90
25718;DHT22;13574;52.040;5.692;2022-11-02T16:15:19;17.70;99.90
25718;DHT22;13574;52.040;5.692;2022-11-02T16:17:49;17.60;99.90
25718;DHT22;13574;52.040;5.692;2022-11-02T16:22:56;17.60;99.90
25718;DHT22;13574;52.040;5.692;2022-11-02T16:25:39;17.50;99.90
25718;DHT22;13574;52.040;5.692;2022-11-02T16:28:26;17.40;99.90
25718;DHT22;13574;52.040;5.692;2022-11-02T16:31:00;17.40;99.90
25718;DHT22;13574;52.040;5.692;2022-11-02T16:33:33;17.40;99.90
25718;DHT22;13574;52.040;5.692;2022-11-02T16:36:01;17.30;99.90
25718;DHT22;13574;52.040;5.692;2022-11-02T16:38:27;17.30;99.90
25718;DHT22;13574;52.040;5.692;2022-11-02T16:40:53;17.30;99.90
25718;DHT22;13574;52.040;5.692;2022-11-02T16:43:19;17.20;99.90
25718;DHT22;13574;52.040;5.692;2022-11-02T16:45:49;17.10;99.90
25718;DHT22;13574;52.040;5.692;2022-11-02T16:48:23;17.10;99.90
25718;DHT22;13574;52.040;5.692;2022-11-02T16:53:36;17.10;99.90
25718;DHT22;13574;52.040;5.692;2022-11-02T16:56:27;17.20;99.90
25718;DHT22;13574;52.040;5.692;2022-11-02T16:59:04;17.10;99.90
25718;DHT22;13574;52.040;5.692;2022-11-02T17:01:35;17.10;99.90
25718;DHT22;13574;52.040;5.692;2022-11-02T17:04:22;17.00;99.90
25718;DHT22;13574;52.040;5.692;2022-11-02T17:06:53;16.80;99.90
25718;DHT22;13574;52.040;5.692;2022-11-02T17:09:26;16.80;99.90
25718;DHT22;13574;52.040;5.692;2022-11-02T17:11:55;16.80;99.90
25718;DHT22;13574;52.040;5.692;2022-11-02T17:14:22;16.80;99.90
25718;DHT22;13574;52.040;5.692;2022-11-02T17:17:04;16.90;99.90
25718;DHT22;13574;52.040;5.692;2022-11-02T17:22:11;16.90;99.90
25718;DHT22;13574;52.040;5.692;2022-11-02T17:24:39;16.70;99.90
25718;DHT22;13574;52.040;5.692;2022-11-02T17:27:23;16.70;99.90
25718;DHT22;13574;52.040;5.692;2022-11-02T17:29:51;16.60;99.90
25718;DHT22;13574;52.040;5.692;2022-11-02T17:32:17;16.70;99.90
25718;DHT22;13574;52.040;5.692;2022-11-02T17:34:51;16.70;99.90
25718;DHT22;13574;52.040;5.692;2022-11-02T17:37:24;16.60;99.90
25718;DHT22;13574;52.040;5.692;2022-11-02T17:39:50;16.50;99.90
25718;DHT22;13574;52.040;5.692;2022-11-02T17:42:16;16.50;99.90
25718;DHT22;13574;52.040;5.692;2022-11-02T17:47:45;16.10;99.90
25718;DHT22;13574;52.040;5.692;2022-11-02T17:50:11;16.20;99.90
25718;DHT22;13574;52.040;5.692;2022-11-02T17:52:37;16.40;99.90
25718;DHT22;13574;52.040;5.692;2022-11-02T17:55:04;16.40;99.90
25718;DHT22;13574;52.040;5.692;2022-11-02T17:57:31;16.30;99.90
25718;DHT22;13574;52.040;5.692;2022-11-02T17:59:57;16.40;99.90
25718;DHT22;13574;52.040;5.692;2022-11-02T18:02:23;16.40;99.90
25718;DHT22;13574;52.040;5.692;2022-11-02T18:04:49;16.30;99.90
25718;DHT22;13574;52.040;5.692;2022-11-02T18:07:14;16.20;99.90
25718;DHT22;13574;52.040;5.692;2022-11-02T18:09:40;16.20;99.90
25718;DHT22;13574;52.040;5.692;2022-11-02T18:12:10;16.10;99.90
25718;DHT22;13574;52.040;5.692;2022-11-02T18:14:36;15.90;99.90
25718;DHT22;13574;52.040;5.692;2022-11-02T18:17:02;16.30;99.90
25718;DHT22;13574;52.040;5.692;2022-11-02T18:19:28;16.20;99.90
25718;DHT22;13574;52.040;5.692;2022-11-02T18:21:56;16.20;99.90
25718;DHT22;13574;52.040;5.692;2022-11-02T18:24:22;16.20;99.90
25718;DHT22;13574;52.040;5.692;2022-11-02T18:26:48;16.20;99.90
25718;DHT22;13574;52.040;5.692;2022-11-02T18:29:13;16.30;99.90
25718;DHT22;13574;52.040;5.692;2022-11-02T18:31:39;16.20;99.90
25718;DHT22;13574;52.040;5.692;2022-11-02T18:34:04;16.30;99.90
25718;DHT22;13574;52.040;5.692;2022-11-02T18:36:30;16.40;99.90
25718;DHT22;13574;52.040;5.692;2022-11-02T18:38:56;16.50;99.90
25718;DHT22;13574;52.040;5.692;2022-11-02T18:41:22;16.60;99.90
25718;DHT22;13574;52.040;5.692;2022-11-02T18:44:04;16.50;99.90
25718;DHT22;13574;52.040;5.692;2022-11-02T18:46:32;16.30;99.90